sensor_id;sensor_type;location;lat;lon;timestamp;P1;durP1;ratioP1;P2;durP2;ratioP2
26502;SDS011;14177;51.520;6.764;2023-06-22T00:00:06;8.95;;;5.53;;
26502;SDS011;14177;51.520;6.764;2023-06-22T00:02:52;10.07;;;5.30;;
26502;SDS011;14177;51.520;6.764;2023-06-22T00:05:33;10.27;;;6.60;;
26502;SDS011;14177;51.520;6.764;2023-06-22T00:08:14;16.33;;;6.00;;
26502;SDS011;14177;51.520;6.764;2023-06-22T00:10:56;9.07;;;6.20;;
26502;SDS011;14177;51.520;6.764;2023-06-22T00:13:39;10.10;;;6.07;;
26502;SDS011;14177;51.520;6.764;2023-06-22T00:16:20;9.77;;;5.97;;
26502;SDS011;14177;51.520;6.764;2023-06-22T00:19:01;9.07;;;6.00;;
26502;SDS011;14177;51.520;6.764;2023-06-22T00:21:42;9.80;;;6.28;;
26502;SDS011;14177;51.520;6.764;2023-06-22T00:24:27;7.90;;;6.13;;
26502;SDS011;14177;51.520;6.764;2023-06-22T00:27:06;8.50;;;5.32;;
26502;SDS011;14177;51.520;6.764;2023-06-22T00:29:47;13.93;;;7.20;;
26502;SDS011;14177;51.520;6.764;2023-06-22T00:32:14;10.07;;;7.32;;
26502;SDS011;14177;51.520;6.764;2023-06-22T00:34:58;11.02;;;6.68;;
26502;SDS011;14177;51.520;6.764;2023-06-22T00:37:40;9.68;;;5.70;;
26502;SDS011;14177;51.520;6.764;2023-06-22T00:40:09;10.40;;;6.10;;
26502;SDS011;14177;51.520;6.764;2023-06-22T00:42:38;9.27;;;6.07;;
26502;SDS011;14177;51.520;6.764;2023-06-22T00:45:05;10.40;;;5.78;;
26502;SDS011;14177;51.520;6.764;2023-06-22T00:47:52;10.07;;;6.40;;
26502;SDS011;14177;51.520;6.764;2023-06-22T00:50:37;11.20;;;6.30;;
26502;SDS011;14177;51.520;6.764;2023-06-22T00:53:06;8.95;;;6.00;;
26502;SDS011;14177;51.520;6.764;2023-06-22T00:55:44;10.00;;;6.70;;
26502;SDS011;14177;51.520;6.764;2023-06-22T00:58:26;9.93;;;6.18;;
26502;SDS011;14177;51.520;6.764;2023-06-22T01:01:08;8.77;;;6.68;;
26502;SDS011;14177;51.520;6.764;2023-06-22T01:03:49;14.07;;;7.53;;
26502;SDS011;14177;51.520;6.764;2023-06-22T01:06:33;10.02;;;6.65;;
26502;SDS011;14177;51.520;6.764;2023-06-22T01:09:19;9.68;;;6.13;;
26502;SDS011;14177;51.520;6.764;2023-06-22T01:11:58;14.55;;;7.07;;
26502;SDS011;14177;51.520;6.764;2023-06-22T01:14:47;11.18;;;6.50;;
26502;SDS011;14177;51.520;6.764;2023-06-22T01:17:40;9.98;;;6.10;;
26502;SDS011;14177;51.520;6.764;2023-06-22T01:23:01;9.48;;;6.70;;
26502;SDS011;14177;51.520;6.764;2023-06-22T01:26:25;10.38;;;6.25;;
26502;SDS011;14177;51.520;6.764;2023-06-22T01:29:20;13.32;;;6.95;;
26502;SDS011;14177;51.520;6.764;2023-06-22T01:32:04;6.78;;;5.30;;
26502;SDS011;14177;51.520;6.764;2023-06-22T01:34:46;10.00;;;7.20;;
26502;SDS011;14177;51.520;6.764;2023-06-22T01:37:29;11.38;;;7.38;;
26502;SDS011;14177;51.520;6.764;2023-06-22T01:40:14;8.40;;;6.93;;
26502;SDS011;14177;51.520;6.764;2023-06-22T01:42:57;11.82;;;6.32;;
26502;SDS011;14177;51.520;6.764;2023-06-22T01:45:34;11.25;;;6.88;;
26502;SDS011;14177;51.520;6.764;2023-06-22T01:48:01;10.05;;;6.70;;
26502;SDS011;14177;51.520;6.764;2023-06-22T01:50:29;12.50;;;6.65;;
26502;SDS011;14177;51.520;6.764;2023-06-22T01:52:57;11.82;;;6.85;;
26502;SDS011;14177;51.520;6.764;2023-06-22T01:55:25;11.68;;;6.55;;
26502;SDS011;14177;51.520;6.764;2023-06-22T01:57:52;10.52;;;6.90;;
26502;SDS011;14177;51.520;6.764;2023-06-22T02:00:20;9.95;;;7.35;;
26502;SDS011;14177;51.520;6.764;2023-06-22T02:03:11;11.75;;;7.70;;
26502;SDS011;14177;51.520;6.764;2023-06-22T02:05:52;12.98;;;7.20;;
26502;SDS011;14177;51.520;6.764;2023-06-22T02:08:32;9.77;;;6.78;;
26502;SDS011;14177;51.520;6.764;2023-06-22T02:11:09;11.27;;;7.40;;
26502;SDS011;14177;51.520;6.764;2023-06-22T02:13:39;11.05;;;7.60;;
26502;SDS011;14177;51.520;6.764;2023-06-22T02:16:10;11.25;;;7.22;;
26502;SDS011;14177;51.520;6.764;2023-06-22T02:18:45;10.93;;;7.32;;
26502;SDS011;14177;51.520;6.764;2023-06-22T02:21:19;10.32;;;7.30;;
26502;SDS011;14177;51.520;6.764;2023-06-22T02:23:47;12.52;;;7.35;;
26502;SDS011;14177;51.520;6.764;2023-06-22T02:26:15;11.20;;;7.50;;
26502;SDS011;14177;51.520;6.764;2023-06-22T02:28:44;12.48;;;8.45;;
26502;SDS011;14177;51.520;6.764;2023-06-22T02:31:12;12.02;;;7.97;;
26502;SDS011;14177;51.520;6.764;2023-06-22T02:33:39;12.98;;;7.78;;
26502;SDS011;14177;51.520;6.764;2023-06-22T02:36:06;11.68;;;8.18;;
26502;SDS011;14177;51.520;6.764;2023-06-22T02:38:35;14.23;;;8.15;;
26502;SDS011;14177;51.520;6.764;2023-06-22T02:41:02;13.02;;;8.98;;
26502;SDS011;14177;51.520;6.764;2023-06-22T02:43:29;10.07;;;7.93;;
26502;SDS011;14177;51.520;6.764;2023-06-22T02:45:57;12.93;;;8.00;;
26502;SDS011;14177;51.520;6.764;2023-06-22T02:48:24;14.07;;;8.82;;
26502;SDS011;14177;51.520;6.764;2023-06-22T02:50:52;12.80;;;8.38;;
26502;SDS011;14177;51.520;6.764;2023-06-22T02:53:19;12.95;;;8.63;;
26502;SDS011;14177;51.520;6.764;2023-06-22T02:55:47;12.23;;;8.90;;
26502;SDS011;14177;51.520;6.764;2023-06-22T02:58:15;11.80;;;9.38;;
26502;SDS011;14177;51.520;6.764;2023-06-22T03:00:43;11.05;;;9.05;;
26502;SDS011;14177;51.520;6.764;2023-06-22T03:03:10;14.73;;;8.68;;
26502;SDS011;14177;51.520;6.764;2023-06-22T03:05:37;14.35;;;9.40;;
26502;SDS011;14177;51.520;6.764;2023-06-22T03:08:04;12.80;;;9.73;;
26502;SDS011;14177;51.520;6.764;2023-06-22T03:10:33;13.25;;;8.98;;
26502;SDS011;14177;51.520;6.764;2023-06-22T03:13:00;12.85;;;9.75;;
26502;SDS011;14177;51.520;6.764;2023-06-22T03:15:27;13.95;;;9.18;;
26502;SDS011;14177;51.520;6.764;2023-06-22T03:17:56;12.77;;;9.88;;
26502;SDS011;14177;51.520;6.764;2023-06-22T03:20:23;14.63;;;9.68;;
26502;SDS011;14177;51.520;6.764;2023-06-22T03:22:59;15.23;;;9.57;;
26502;SDS011;14177;51.520;6.764;2023-06-22T03:25:27;12.43;;;10.07;;
26502;SDS011;14177;51.520;6.764;2023-06-22T03:27:54;15.70;;;10.70;;
26502;SDS011;14177;51.520;6.764;2023-06-22T03:30:22;14.75;;;10.40;;
26502;SDS011;14177;51.520;6.764;2023-06-22T03:32:50;13.45;;;9.23;;
26502;SDS011;14177;51.520;6.764;2023-06-22T03:35:17;17.13;;;10.63;;
26502;SDS011;14177;51.520;6.764;2023-06-22T03:37:45;15.90;;;10.20;;
26502;SDS011;14177;51.520;6.764;2023-06-22T03:40:12;18.55;;;10.32;;
26502;SDS011;14177;51.520;6.764;2023-06-22T03:42:39;14.20;;;9.98;;
26502;SDS011;14177;51.520;6.764;2023-06-22T03:45:19;16.33;;;9.95;;
26502;SDS011;14177;51.520;6.764;2023-06-22T03:47:46;15.43;;;10.15;;
26502;SDS011;14177;51.520;6.764;2023-06-22T03:50:12;15.10;;;10.77;;
26502;SDS011;14177;51.520;6.764;2023-06-22T03:52:41;15.45;;;10.30;;
26502;SDS011;14177;51.520;6.764;2023-06-22T03:55:08;14.40;;;10.63;;
26502;SDS011;14177;51.520;6.764;2023-06-22T03:57:36;13.65;;;9.25;;
26502;SDS011;14177;51.520;6.764;2023-06-22T04:00:03;15.27;;;10.98;;
26502;SDS011;14177;51.520;6.764;2023-06-22T04:02:37;14.80;;;11.23;;
26502;SDS011;14177;51.520;6.764;2023-06-22T04:05:04;17.48;;;11.38;;
26502;SDS011;14177;51.520;6.764;2023-06-22T04:07:32;16.50;;;11.63;;
26502;SDS011;14177;51.520;6.764;2023-06-22T04:10:13;15.00;;;10.80;;
26502;SDS011;14177;51.520;6.764;2023-06-22T04:12:49;17.63;;;10.63;;
26502;SDS011;14177;51.520;6.764;2023-06-22T04:15:25;14.05;;;10.80;;
26502;SDS011;14177;51.520;6.764;2023-06-22T04:18:06;15.27;;;11.15;;
26502;SDS011;14177;51.520;6.764;2023-06-22T04:20:38;14.95;;;10.88;;
26502;SDS011;14177;51.520;6.764;2023-06-22T04:23:20;15.05;;;10.70;;
26502;SDS011;14177;51.520;6.764;2023-06-22T04:26:01;16.08;;;11.40;;
26502;SDS011;14177;51.520;6.764;2023-06-22T04:28:29;16.55;;;11.45;;
26502;SDS011;14177;51.520;6.764;2023-06-22T04:31:01;15.75;;;11.77;;
26502;SDS011;14177;51.520;6.764;2023-06-22T04:33:33;17.35;;;11.55;;
26502;SDS011;14177;51.520;6.764;2023-06-22T04:36:04;15.07;;;11.02;;
26502;SDS011;14177;51.520;6.764;2023-06-22T04:38:31;18.63;;;11.82;;
26502;SDS011;14177;51.520;6.764;2023-06-22T04:41:01;14.02;;;11.02;;
26502;SDS011;14177;51.520;6.764;2023-06-22T04:43:30;13.88;;;10.75;;
26502;SDS011;14177;51.520;6.764;2023-06-22T04:45:59;14.80;;;11.18;;
26502;SDS011;14177;51.520;6.764;2023-06-22T04:48:33;15.02;;;10.95;;
26502;SDS011;14177;51.520;6.764;2023-06-22T04:51:10;15.85;;;11.25;;
26502;SDS011;14177;51.520;6.764;2023-06-22T04:53:37;15.18;;;11.13;;
26502;SDS011;14177;51.520;6.764;2023-06-22T04:56:04;20.00;;;11.55;;
26502;SDS011;14177;51.520;6.764;2023-06-22T04:58:31;21.80;;;11.05;;
26502;SDS011;14177;51.520;6.764;2023-06-22T05:00:58;16.25;;;10.73;;
26502;SDS011;14177;51.520;6.764;2023-06-22T05:03:25;20.23;;;10.88;;
26502;SDS011;14177;51.520;6.764;2023-06-22T05:05:52;18.15;;;11.57;;
26502;SDS011;14177;51.520;6.764;2023-06-22T05:08:21;14.95;;;11.00;;
26502;SDS011;14177;51.520;6.764;2023-06-22T05:11:06;16.25;;;11.05;;
26502;SDS011;14177;51.520;6.764;2023-06-22T05:13:36;18.98;;;11.68;;
26502;SDS011;14177;51.520;6.764;2023-06-22T05:16:17;15.13;;;10.95;;
26502;SDS011;14177;51.520;6.764;2023-06-22T05:19:03;17.30;;;11.77;;
26502;SDS011;14177;51.520;6.764;2023-06-22T05:21:44;16.08;;;10.43;;
26502;SDS011;14177;51.520;6.764;2023-06-22T05:24:14;15.98;;;11.35;;
26502;SDS011;14177;51.520;6.764;2023-06-22T05:26:55;14.32;;;10.95;;
26502;SDS011;14177;51.520;6.764;2023-06-22T05:29:36;22.25;;;11.35;;
26502;SDS011;14177;51.520;6.764;2023-06-22T05:32:04;17.65;;;11.18;;
26502;SDS011;14177;51.520;6.764;2023-06-22T05:34:32;16.58;;;11.63;;
26502;SDS011;14177;51.520;6.764;2023-06-22T05:36:58;15.70;;;11.88;;
26502;SDS011;14177;51.520;6.764;2023-06-22T05:39:26;17.48;;;11.77;;
26502;SDS011;14177;51.520;6.764;2023-06-22T05:41:53;15.52;;;11.73;;
26502;SDS011;14177;51.520;6.764;2023-06-22T05:44:20;16.75;;;11.50;;
26502;SDS011;14177;51.520;6.764;2023-06-22T05:46:46;18.02;;;12.00;;
26502;SDS011;14177;51.520;6.764;2023-06-22T05:49:14;15.00;;;10.57;;
26502;SDS011;14177;51.520;6.764;2023-06-22T05:51:42;16.20;;;10.98;;
26502;SDS011;14177;51.520;6.764;2023-06-22T05:54:09;18.77;;;11.63;;
26502;SDS011;14177;51.520;6.764;2023-06-22T05:56:36;15.30;;;11.40;;
26502;SDS011;14177;51.520;6.764;2023-06-22T05:59:05;17.90;;;11.50;;
26502;SDS011;14177;51.520;6.764;2023-06-22T06:01:32;18.08;;;12.00;;
26502;SDS011;14177;51.520;6.764;2023-06-22T06:04:03;15.80;;;11.00;;
26502;SDS011;14177;51.520;6.764;2023-06-22T06:06:32;16.80;;;11.73;;
26502;SDS011;14177;51.520;6.764;2023-06-22T06:09:00;17.98;;;11.90;;
26502;SDS011;14177;51.520;6.764;2023-06-22T06:11:27;12.85;;;9.50;;
26502;SDS011;14177;51.520;6.764;2023-06-22T06:13:54;18.02;;;11.60;;
26502;SDS011;14177;51.520;6.764;2023-06-22T06:16:22;16.40;;;11.07;;
26502;SDS011;14177;51.520;6.764;2023-06-22T06:18:49;14.27;;;11.00;;
26502;SDS011;14177;51.520;6.764;2023-06-22T06:21:16;15.40;;;12.18;;
26502;SDS011;14177;51.520;6.764;2023-06-22T06:23:43;18.85;;;11.85;;
26502;SDS011;14177;51.520;6.764;2023-06-22T06:26:10;18.73;;;11.93;;
26502;SDS011;14177;51.520;6.764;2023-06-22T06:28:37;19.42;;;12.07;;
26502;SDS011;14177;51.520;6.764;2023-06-22T06:31:04;15.35;;;12.05;;
26502;SDS011;14177;51.520;6.764;2023-06-22T06:33:33;21.88;;;12.02;;
26502;SDS011;14177;51.520;6.764;2023-06-22T06:36:00;20.20;;;12.70;;
26502;SDS011;14177;51.520;6.764;2023-06-22T06:38:30;16.15;;;10.98;;
26502;SDS011;14177;51.520;6.764;2023-06-22T06:40:58;16.17;;;11.95;;
26502;SDS011;14177;51.520;6.764;2023-06-22T06:43:25;16.77;;;12.45;;
26502;SDS011;14177;51.520;6.764;2023-06-22T06:45:52;18.35;;;12.48;;
26502;SDS011;14177;51.520;6.764;2023-06-22T06:48:19;19.17;;;12.60;;
26502;SDS011;14177;51.520;6.764;2023-06-22T06:50:46;20.70;;;13.23;;
26502;SDS011;14177;51.520;6.764;2023-06-22T06:53:13;21.08;;;12.98;;
26502;SDS011;14177;51.520;6.764;2023-06-22T06:55:40;15.80;;;13.02;;
26502;SDS011;14177;51.520;6.764;2023-06-22T06:58:07;20.00;;;12.75;;
26502;SDS011;14177;51.520;6.764;2023-06-22T07:00:36;18.27;;;12.18;;
26502;SDS011;14177;51.520;6.764;2023-06-22T07:03:03;19.20;;;12.80;;
26502;SDS011;14177;51.520;6.764;2023-06-22T07:05:30;16.27;;;12.65;;
26502;SDS011;14177;51.520;6.764;2023-06-22T07:07:57;21.92;;;13.73;;
26502;SDS011;14177;51.520;6.764;2023-06-22T07:10:24;17.90;;;13.57;;
26502;SDS011;14177;51.520;6.764;2023-06-22T07:12:51;19.88;;;13.43;;
26502;SDS011;14177;51.520;6.764;2023-06-22T07:15:18;18.38;;;13.50;;
26502;SDS011;14177;51.520;6.764;2023-06-22T07:17:45;17.70;;;13.15;;
26502;SDS011;14177;51.520;6.764;2023-06-22T07:20:12;18.92;;;13.23;;
26502;SDS011;14177;51.520;6.764;2023-06-22T07:22:39;18.70;;;13.25;;
26502;SDS011;14177;51.520;6.764;2023-06-22T07:25:09;17.02;;;12.93;;
26502;SDS011;14177;51.520;6.764;2023-06-22T07:27:37;20.85;;;13.88;;
26502;SDS011;14177;51.520;6.764;2023-06-22T07:30:09;18.80;;;14.23;;
26502;SDS011;14177;51.520;6.764;2023-06-22T07:32:37;20.50;;;13.88;;
26502;SDS011;14177;51.520;6.764;2023-06-22T07:35:04;20.17;;;14.38;;
26502;SDS011;14177;51.520;6.764;2023-06-22T07:37:32;18.52;;;13.48;;
26502;SDS011;14177;51.520;6.764;2023-06-22T07:40:01;20.73;;;13.10;;
26502;SDS011;14177;51.520;6.764;2023-06-22T07:42:32;19.27;;;14.10;;
26502;SDS011;14177;51.520;6.764;2023-06-22T07:44:59;20.13;;;14.73;;
26502;SDS011;14177;51.520;6.764;2023-06-22T07:47:27;19.25;;;13.88;;
26502;SDS011;14177;51.520;6.764;2023-06-22T07:49:54;20.17;;;14.63;;
26502;SDS011;14177;51.520;6.764;2023-06-22T07:52:24;22.23;;;15.18;;
26502;SDS011;14177;51.520;6.764;2023-06-22T07:54:54;19.58;;;13.90;;
26502;SDS011;14177;51.520;6.764;2023-06-22T07:57:21;19.73;;;14.38;;
26502;SDS011;14177;51.520;6.764;2023-06-22T07:59:48;20.48;;;14.60;;
26502;SDS011;14177;51.520;6.764;2023-06-22T08:02:14;20.30;;;15.23;;
26502;SDS011;14177;51.520;6.764;2023-06-22T08:04:41;19.77;;;14.25;;
26502;SDS011;14177;51.520;6.764;2023-06-22T08:07:08;20.42;;;14.38;;
26502;SDS011;14177;51.520;6.764;2023-06-22T08:09:36;20.98;;;13.35;;
26502;SDS011;14177;51.520;6.764;2023-06-22T08:12:03;17.48;;;13.25;;
26502;SDS011;14177;51.520;6.764;2023-06-22T08:14:32;24.40;;;14.73;;
26502;SDS011;14177;51.520;6.764;2023-06-22T08:17:02;23.70;;;15.25;;
26502;SDS011;14177;51.520;6.764;2023-06-22T08:19:29;20.02;;;15.43;;
26502;SDS011;14177;51.520;6.764;2023-06-22T08:21:56;22.02;;;15.93;;
26502;SDS011;14177;51.520;6.764;2023-06-22T08:24:23;19.80;;;14.90;;
26502;SDS011;14177;51.520;6.764;2023-06-22T08:26:51;22.30;;;13.93;;
26502;SDS011;14177;51.520;6.764;2023-06-22T08:29:18;22.95;;;14.93;;
26502;SDS011;14177;51.520;6.764;2023-06-22T08:31:45;22.40;;;14.88;;
26502;SDS011;14177;51.520;6.764;2023-06-22T08:34:12;22.00;;;15.32;;
26502;SDS011;14177;51.520;6.764;2023-06-22T08:36:43;21.15;;;14.68;;
26502;SDS011;14177;51.520;6.764;2023-06-22T08:39:15;22.10;;;14.93;;
26502;SDS011;14177;51.520;6.764;2023-06-22T08:41:41;19.25;;;14.80;;
26502;SDS011;14177;51.520;6.764;2023-06-22T08:44:08;22.10;;;14.60;;
26502;SDS011;14177;51.520;6.764;2023-06-22T08:46:35;20.67;;;14.02;;
26502;SDS011;14177;51.520;6.764;2023-06-22T08:49:03;21.15;;;14.63;;
26502;SDS011;14177;51.520;6.764;2023-06-22T08:51:30;19.10;;;13.93;;
26502;SDS011;14177;51.520;6.764;2023-06-22T08:53:57;21.52;;;14.73;;
26502;SDS011;14177;51.520;6.764;2023-06-22T08:56:23;18.48;;;13.77;;
26502;SDS011;14177;51.520;6.764;2023-06-22T08:58:50;20.60;;;14.85;;
26502;SDS011;14177;51.520;6.764;2023-06-22T09:01:20;19.27;;;13.38;;
26502;SDS011;14177;51.520;6.764;2023-06-22T09:03:48;25.63;;;15.25;;
26502;SDS011;14177;51.520;6.764;2023-06-22T09:06:20;22.17;;;15.05;;
26502;SDS011;14177;51.520;6.764;2023-06-22T09:08:47;19.65;;;14.82;;
26502;SDS011;14177;51.520;6.764;2023-06-22T09:11:15;20.05;;;14.85;;
26502;SDS011;14177;51.520;6.764;2023-06-22T09:13:42;17.65;;;13.20;;
26502;SDS011;14177;51.520;6.764;2023-06-22T09:16:09;18.27;;;14.02;;
26502;SDS011;14177;51.520;6.764;2023-06-22T09:18:37;18.42;;;14.85;;
26502;SDS011;14177;51.520;6.764;2023-06-22T09:21:04;19.92;;;14.48;;
26502;SDS011;14177;51.520;6.764;2023-06-22T09:23:31;19.17;;;14.60;;
26502;SDS011;14177;51.520;6.764;2023-06-22T09:25:58;19.83;;;15.02;;
26502;SDS011;14177;51.520;6.764;2023-06-22T09:28:25;18.17;;;14.45;;
26502;SDS011;14177;51.520;6.764;2023-06-22T09:30:52;19.17;;;14.65;;
26502;SDS011;14177;51.520;6.764;2023-06-22T09:33:25;16.60;;;13.18;;
26502;SDS011;14177;51.520;6.764;2023-06-22T09:35:52;18.77;;;14.18;;
26502;SDS011;14177;51.520;6.764;2023-06-22T09:38:19;18.95;;;13.95;;
26502;SDS011;14177;51.520;6.764;2023-06-22T09:40:46;19.38;;;13.85;;
26502;SDS011;14177;51.520;6.764;2023-06-22T09:43:13;19.35;;;13.82;;
26502;SDS011;14177;51.520;6.764;2023-06-22T09:45:40;20.90;;;13.43;;
26502;SDS011;14177;51.520;6.764;2023-06-22T09:48:09;19.50;;;14.13;;
26502;SDS011;14177;51.520;6.764;2023-06-22T09:50:36;19.80;;;14.23;;
26502;SDS011;14177;51.520;6.764;2023-06-22T09:53:03;19.67;;;14.38;;
26502;SDS011;14177;51.520;6.764;2023-06-22T09:55:30;20.83;;;13.48;;
26502;SDS011;14177;51.520;6.764;2023-06-22T09:57:57;17.90;;;13.57;;
26502;SDS011;14177;51.520;6.764;2023-06-22T10:00:24;21.35;;;14.18;;
26502;SDS011;14177;51.520;6.764;2023-06-22T10:02:53;23.27;;;14.25;;
26502;SDS011;14177;51.520;6.764;2023-06-22T10:05:22;18.70;;;13.77;;
26502;SDS011;14177;51.520;6.764;2023-06-22T10:07:51;20.02;;;13.20;;
26502;SDS011;14177;51.520;6.764;2023-06-22T10:10:18;18.08;;;13.25;;
26502;SDS011;14177;51.520;6.764;2023-06-22T10:12:46;20.15;;;13.55;;
26502;SDS011;14177;51.520;6.764;2023-06-22T10:15:21;17.73;;;12.90;;
26502;SDS011;14177;51.520;6.764;2023-06-22T10:17:48;18.77;;;14.27;;
26502;SDS011;14177;51.520;6.764;2023-06-22T10:20:15;17.88;;;13.30;;
26502;SDS011;14177;51.520;6.764;2023-06-22T10:22:44;16.17;;;13.27;;
26502;SDS011;14177;51.520;6.764;2023-06-22T10:25:12;16.10;;;12.60;;
26502;SDS011;14177;51.520;6.764;2023-06-22T10:27:39;20.38;;;13.73;;
26502;SDS011;14177;51.520;6.764;2023-06-22T10:30:10;19.80;;;12.43;;
26502;SDS011;14177;51.520;6.764;2023-06-22T10:32:42;19.15;;;13.23;;
26502;SDS011;14177;51.520;6.764;2023-06-22T10:35:10;17.20;;;12.23;;
26502;SDS011;14177;51.520;6.764;2023-06-22T10:37:39;19.63;;;13.77;;
26502;SDS011;14177;51.520;6.764;2023-06-22T10:40:06;18.23;;;13.32;;
26502;SDS011;14177;51.520;6.764;2023-06-22T10:42:34;20.13;;;12.45;;
26502;SDS011;14177;51.520;6.764;2023-06-22T10:45:01;17.00;;;13.30;;
26502;SDS011;14177;51.520;6.764;2023-06-22T10:47:28;16.05;;;12.50;;
26502;SDS011;14177;51.520;6.764;2023-06-22T10:49:55;16.60;;;12.52;;
26502;SDS011;14177;51.520;6.764;2023-06-22T10:52:22;16.27;;;12.68;;
26502;SDS011;14177;51.520;6.764;2023-06-22T10:54:49;18.40;;;13.15;;
26502;SDS011;14177;51.520;6.764;2023-06-22T10:57:16;23.63;;;13.00;;
26502;SDS011;14177;51.520;6.764;2023-06-22T10:59:42;16.35;;;12.20;;
26502;SDS011;14177;51.520;6.764;2023-06-22T11:02:09;16.90;;;12.07;;
26502;SDS011;14177;51.520;6.764;2023-06-22T11:04:36;16.95;;;11.43;;
26502;SDS011;14177;51.520;6.764;2023-06-22T11:07:03;17.45;;;12.30;;
26502;SDS011;14177;51.520;6.764;2023-06-22T11:09:30;14.40;;;11.40;;
26502;SDS011;14177;51.520;6.764;2023-06-22T11:11:58;15.30;;;12.18;;
26502;SDS011;14177;51.520;6.764;2023-06-22T11:14:25;16.33;;;11.27;;
26502;SDS011;14177;51.520;6.764;2023-06-22T11:16:52;16.35;;;11.07;;
26502;SDS011;14177;51.520;6.764;2023-06-22T11:19:20;14.98;;;10.80;;
26502;SDS011;14177;51.520;6.764;2023-06-22T11:21:46;14.65;;;10.63;;
26502;SDS011;14177;51.520;6.764;2023-06-22T11:24:13;14.77;;;11.40;;
26502;SDS011;14177;51.520;6.764;2023-06-22T11:26:42;15.65;;;9.38;;
26502;SDS011;14177;51.520;6.764;2023-06-22T11:29:09;14.10;;;10.20;;
26502;SDS011;14177;51.520;6.764;2023-06-22T11:31:53;15.82;;;10.88;;
26502;SDS011;14177;51.520;6.764;2023-06-22T11:34:20;15.25;;;10.40;;
26502;SDS011;14177;51.520;6.764;2023-06-22T11:36:46;15.40;;;11.18;;
26502;SDS011;14177;51.520;6.764;2023-06-22T11:39:14;14.93;;;9.75;;
26502;SDS011;14177;51.520;6.764;2023-06-22T11:41:41;16.80;;;10.48;;
26502;SDS011;14177;51.520;6.764;2023-06-22T11:44:08;15.50;;;11.35;;
26502;SDS011;14177;51.520;6.764;2023-06-22T11:46:36;17.90;;;11.55;;
26502;SDS011;14177;51.520;6.764;2023-06-22T11:49:03;16.25;;;12.13;;
26502;SDS011;14177;51.520;6.764;2023-06-22T11:51:30;17.73;;;11.60;;
26502;SDS011;14177;51.520;6.764;2023-06-22T11:53:58;17.90;;;12.48;;
26502;SDS011;14177;51.520;6.764;2023-06-22T11:56:25;15.77;;;12.00;;
26502;SDS011;14177;51.520;6.764;2023-06-22T11:58:53;19.48;;;12.60;;
26502;SDS011;14177;51.520;6.764;2023-06-22T12:01:20;17.08;;;12.52;;
26502;SDS011;14177;51.520;6.764;2023-06-22T12:03:47;16.58;;;12.27;;
26502;SDS011;14177;51.520;6.764;2023-06-22T12:06:15;19.58;;;13.05;;
26502;SDS011;14177;51.520;6.764;2023-06-22T12:08:41;17.63;;;13.02;;
26502;SDS011;14177;51.520;6.764;2023-06-22T12:11:08;18.60;;;12.57;;
26502;SDS011;14177;51.520;6.764;2023-06-22T12:13:35;17.85;;;12.27;;
26502;SDS011;14177;51.520;6.764;2023-06-22T12:16:02;19.88;;;12.57;;
26502;SDS011;14177;51.520;6.764;2023-06-22T12:18:29;17.27;;;12.43;;
26502;SDS011;14177;51.520;6.764;2023-06-22T12:20:56;16.13;;;12.30;;
26502;SDS011;14177;51.520;6.764;2023-06-22T12:23:23;18.50;;;13.55;;
26502;SDS011;14177;51.520;6.764;2023-06-22T12:25:50;18.73;;;12.98;;
26502;SDS011;14177;51.520;6.764;2023-06-22T12:28:17;19.02;;;12.88;;
26502;SDS011;14177;51.520;6.764;2023-06-22T12:30:44;19.70;;;13.05;;
26502;SDS011;14177;51.520;6.764;2023-06-22T12:33:10;20.25;;;13.77;;
26502;SDS011;14177;51.520;6.764;2023-06-22T12:35:37;19.90;;;12.75;;
26502;SDS011;14177;51.520;6.764;2023-06-22T12:38:04;16.92;;;13.35;;
26502;SDS011;14177;51.520;6.764;2023-06-22T12:40:33;17.90;;;14.65;;
26502;SDS011;14177;51.520;6.764;2023-06-22T12:43:00;17.92;;;13.70;;
26502;SDS011;14177;51.520;6.764;2023-06-22T12:45:28;20.20;;;13.75;;
26502;SDS011;14177;51.520;6.764;2023-06-22T12:47:57;17.98;;;13.27;;
26502;SDS011;14177;51.520;6.764;2023-06-22T12:50:25;20.70;;;14.25;;
26502;SDS011;14177;51.520;6.764;2023-06-22T12:52:53;17.30;;;14.55;;
26502;SDS011;14177;51.520;6.764;2023-06-22T12:55:20;21.13;;;13.73;;
26502;SDS011;14177;51.520;6.764;2023-06-22T12:57:47;17.45;;;13.60;;
26502;SDS011;14177;51.520;6.764;2023-06-22T13:00:14;19.80;;;14.30;;
26502;SDS011;14177;51.520;6.764;2023-06-22T13:02:42;20.63;;;14.63;;
26502;SDS011;14177;51.520;6.764;2023-06-22T13:05:09;20.45;;;15.20;;
26502;SDS011;14177;51.520;6.764;2023-06-22T13:07:36;20.20;;;15.38;;
26502;SDS011;14177;51.520;6.764;2023-06-22T13:10:04;21.02;;;15.65;;
26502;SDS011;14177;51.520;6.764;2023-06-22T13:12:32;18.08;;;14.43;;
26502;SDS011;14177;51.520;6.764;2023-06-22T13:14:59;18.95;;;15.82;;
26502;SDS011;14177;51.520;6.764;2023-06-22T13:17:26;23.02;;;16.10;;
26502;SDS011;14177;51.520;6.764;2023-06-22T13:19:52;21.30;;;16.40;;
26502;SDS011;14177;51.520;6.764;2023-06-22T13:22:32;19.42;;;15.88;;
26502;SDS011;14177;51.520;6.764;2023-06-22T13:25:06;21.60;;;15.90;;
26502;SDS011;14177;51.520;6.764;2023-06-22T13:27:33;18.50;;;15.48;;
26502;SDS011;14177;51.520;6.764;2023-06-22T13:30:01;21.27;;;16.15;;
26502;SDS011;14177;51.520;6.764;2023-06-22T13:32:29;21.75;;;17.05;;
26502;SDS011;14177;51.520;6.764;2023-06-22T13:34:56;23.02;;;15.25;;
26502;SDS011;14177;51.520;6.764;2023-06-22T13:37:22;22.95;;;16.67;;
26502;SDS011;14177;51.520;6.764;2023-06-22T13:39:49;20.83;;;16.02;;
26502;SDS011;14177;51.520;6.764;2023-06-22T13:42:17;23.65;;;17.95;;
26502;SDS011;14177;51.520;6.764;2023-06-22T13:44:43;23.88;;;17.45;;
26502;SDS011;14177;51.520;6.764;2023-06-22T13:47:11;21.50;;;17.38;;
26502;SDS011;14177;51.520;6.764;2023-06-22T13:49:38;20.50;;;15.40;;
26502;SDS011;14177;51.520;6.764;2023-06-22T13:52:05;20.77;;;17.25;;
26502;SDS011;14177;51.520;6.764;2023-06-22T13:54:37;23.40;;;17.10;;
26502;SDS011;14177;51.520;6.764;2023-06-22T13:57:04;21.23;;;16.67;;
26502;SDS011;14177;51.520;6.764;2023-06-22T13:59:32;24.55;;;18.10;;
26502;SDS011;14177;51.520;6.764;2023-06-22T14:01:59;24.50;;;17.88;;
26502;SDS011;14177;51.520;6.764;2023-06-22T14:04:26;19.85;;;16.27;;
26502;SDS011;14177;51.520;6.764;2023-06-22T14:06:55;25.80;;;18.35;;
26502;SDS011;14177;51.520;6.764;2023-06-22T14:09:42;23.58;;;17.55;;
26502;SDS011;14177;51.520;6.764;2023-06-22T14:12:09;23.17;;;17.75;;
26502;SDS011;14177;51.520;6.764;2023-06-22T14:14:37;19.80;;;16.60;;
26502;SDS011;14177;51.520;6.764;2023-06-22T14:17:09;23.40;;;18.00;;
26502;SDS011;14177;51.520;6.764;2023-06-22T14:19:37;23.45;;;17.73;;
26502;SDS011;14177;51.520;6.764;2023-06-22T14:22:04;22.63;;;17.55;;
26502;SDS011;14177;51.520;6.764;2023-06-22T14:24:31;21.17;;;16.92;;
26502;SDS011;14177;51.520;6.764;2023-06-22T14:26:58;21.92;;;17.80;;
26502;SDS011;14177;51.520;6.764;2023-06-22T14:29:26;23.08;;;17.38;;
26502;SDS011;14177;51.520;6.764;2023-06-22T14:31:53;23.88;;;17.73;;
26502;SDS011;14177;51.520;6.764;2023-06-22T14:34:20;23.40;;;17.85;;
26502;SDS011;14177;51.520;6.764;2023-06-22T14:36:47;24.05;;;17.95;;
26502;SDS011;14177;51.520;6.764;2023-06-22T14:39:14;22.95;;;16.25;;
26502;SDS011;14177;51.520;6.764;2023-06-22T14:41:41;23.00;;;17.42;;
26502;SDS011;14177;51.520;6.764;2023-06-22T14:44:08;22.23;;;18.33;;